sensor_id;sensor_type;location;lat;lon;timestamp;pressure;altitude;pressure_sealevel;temperature;humidity
34931;BME280;21134;49.646;8.560;2023-12-20T00:01:24;100526.19;;;4.77;100.00
34931;BME280;21134;49.646;8.560;2023-12-20T00:03:51;100524.41;;;4.73;100.00
34931;BME280;21134;49.646;8.560;2023-12-20T00:06:17;100523.59;;;4.74;100.00
34931;BME280;21134;49.646;8.560;2023-12-20T00:08:44;100525.28;;;4.75;100.00
34931;BME280;21134;49.646;8.560;2023-12-20T00:11:10;100512.63;;;4.75;100.00
34931;BME280;21134;49.646;8.560;2023-12-20T00:13:37;100517.66;;;4.74;100.00
34931;BME280;21134;49.646;8.560;2023-12-20T00:16:05;100520.22;;;4.74;100.00
34931;BME280;21134;49.646;8.560;2023-12-20T00:18:32;100516.88;;;4.76;100.00
34931;BME280;21134;49.646;8.560;2023-12-20T00:20:58;100515.97;;;4.74;100.00
34931;BME280;21134;49.646;8.560;2023-12-20T00:23:25;100511.78;;;4.75;100.00
34931;BME280;21134;49.646;8.560;2023-12-20T00:25:51;100511.81;;;4.76;100.00
34931;BME280;21134;49.646;8.560;2023-12-20T00:28:18;100511.75;;;4.73;100.00
34931;BME280;21134;49.646;8.560;2023-12-20T00:30:44;100515.97;;;4.74;100.00
34931;BME280;21134;49.646;8.560;2023-12-20T00:33:12;100510.00;;;4.72;100.00
34931;BME280;21134;49.646;8.560;2023-12-20T00:35:38;100506.69;;;4.73;100.00
34931;BME280;21134;49.646;8.560;2023-12-20T00:38:05;100502.47;;;4.75;100.00
34931;BME280;21134;49.646;8.560;2023-12-20T00:40:32;100501.63;;;4.73;100.00
34931;BME280;21134;49.646;8.560;2023-12-20T00:42:58;100496.50;;;4.72;100.00
34931;BME280;21134;49.646;8.560;2023-12-20T00:45:25;100497.31;;;4.71;100.00
34931;BME280;21134;49.646;8.560;2023-12-20T00:47:51;100495.56;;;4.68;100.00
34931;BME280;21134;49.646;8.560;2023-12-20T00:50:19;100499.84;;;4.71;100.00
34931;BME280;21134;49.646;8.560;2023-12-20T00:52:46;100499.84;;;4.71;100.00
34931;BME280;21134;49.646;8.560;2023-12-20T00:55:13;100480.44;;;4.71;100.00
34931;BME280;21134;49.646;8.560;2023-12-20T00:57:40;100485.47;;;4.70;100.00
34931;BME280;21134;49.646;8.560;2023-12-20T01:00:07;100493.03;;;4.68;100.00
34931;BME280;21134;49.646;8.560;2023-12-20T01:02:34;100486.28;;;4.69;100.00
34931;BME280;21134;49.646;8.560;2023-12-20T01:05:01;100493.88;;;4.69;100.00
34931;BME280;21134;49.646;8.560;2023-12-20T01:07:29;100490.44;;;4.65;100.00
34931;BME280;21134;49.646;8.560;2023-12-20T01:09:55;100476.91;;;4.64;100.00
34931;BME280;21134;49.646;8.560;2023-12-20T01:12:22;100485.50;;;4.71;100.00
34931;BME280;21134;49.646;8.560;2023-12-20T01:14:48;100487.91;;;4.65;100.00
34931;BME280;21134;49.646;8.560;2023-12-20T01:17:15;100468.47;;;4.65;100.00
34931;BME280;21134;49.646;8.560;2023-12-20T01:19:41;100476.13;;;4.67;100.00
34931;BME280;21134;49.646;8.560;2023-12-20T01:22:08;100474.50;;;4.69;100.00
34931;BME280;21134;49.646;8.560;2023-12-20T01:24:35;100473.63;;;4.69;100.00
34931;BME280;21134;49.646;8.560;2023-12-20T01:27:02;100472.69;;;4.65;100.00
34931;BME280;21134;49.646;8.560;2023-12-20T01:29:28;100466.81;;;4.66;100.00
34931;BME280;21134;49.646;8.560;2023-12-20T01:31:55;100469.38;;;4.68;100.00
34931;BME280;21134;49.646;8.560;2023-12-20T01:34:21;100468.44;;;4.64;100.00
34931;BME280;21134;49.646;8.560;2023-12-20T01:36:48;100476.97;;;4.66;100.00
34931;BME280;21134;49.646;8.560;2023-12-20T01:39:14;100490.44;;;4.65;100.00
34931;BME280;21134;49.646;8.560;2023-12-20T01:41:42;100479.50;;;4.66;100.00
34931;BME280;21134;49.646;8.560;2023-12-20T01:44:09;100492.19;;;4.68;100.00
34931;BME280;21134;49.646;8.560;2023-12-20T01:46:35;100487.09;;;4.66;100.00
34931;BME280;21134;49.646;8.560;2023-12-20T01:49:02;100471.84;;;4.64;100.00
34931;BME280;21134;49.646;8.560;2023-12-20T01:51:28;100484.50;;;4.64;100.00
34931;BME280;21134;49.646;8.560;2023-12-20T01:53:57;100486.22;;;4.65;100.00
34931;BME280;21134;49.646;8.560;2023-12-20T01:56:24;100480.28;;;4.65;100.00
34931;BME280;21134;49.646;8.560;2023-12-20T01:58:52;100472.75;;;4.66;100.00
34931;BME280;21134;49.646;8.560;2023-12-20T02:01:19;100471.84;;;4.64;100.00
34931;BME280;21134;49.646;8.560;2023-12-20T02:03:45;100476.06;;;4.65;100.00
34931;BME280;21134;49.646;8.560;2023-12-20T02:06:12;100482.75;;;4.62;100.00
34931;BME280;21134;49.646;8.560;2023-12-20T02:08:39;100486.13;;;4.61;100.00
34931;BME280;21134;49.646;8.560;2023-12-20T02:11:05;100494.56;;;4.61;100.00
34931;BME280;21134;49.646;8.560;2023-12-20T02:13:32;100479.38;;;4.61;100.00
34931;BME280;21134;49.646;8.560;2023-12-20T02:16:00;100482.81;;;4.63;100.00
34931;BME280;21134;49.646;8.560;2023-12-20T02:18:26;100476.00;;;4.62;100.00
34931;BME280;21134;49.646;8.560;2023-12-20T02:20:53;100472.66;;;4.63;100.00
34931;BME280;21134;49.646;8.560;2023-12-20T02:23:21;100469.28;;;4.63;100.00
34931;BME280;21134;49.646;8.560;2023-12-20T02:25:48;100467.53;;;4.60;100.00
34931;BME280;21134;49.646;8.560;2023-12-20T02:28:14;100467.53;;;4.60;100.00
34931;BME280;21134;49.646;8.560;2023-12-20T02:30:41;100464.03;;;4.55;100.00
34931;BME280;21134;49.646;8.560;2023-12-20T02:33:10;100467.38;;;4.54;100.00
34931;BME280;21134;49.646;8.560;2023-12-20T02:35:37;100476.69;;;4.55;100.00
34931;BME280;21134;49.646;8.560;2023-12-20T02:38:04;100477.53;;;4.56;100.00
34931;BME280;21134;49.646;8.560;2023-12-20T02:40:31;100472.53;;;4.57;100.00
34931;BME280;21134;49.646;8.560;2023-12-20T02:42:58;100459.00;;;4.57;100.00
34931;BME280;21134;49.646;8.560;2023-12-20T02:45:25;100461.53;;;4.57;100.00
34931;BME280;21134;49.646;8.560;2023-12-20T02:47:51;100462.34;;;4.56;100.00
34931;BME280;21134;49.646;8.560;2023-12-20T02:50:18;100461.50;;;4.55;100.00
34931;BME280;21134;49.646;8.560;2023-12-20T02:52:45;100458.97;;;4.55;100.00
34931;BME280;21134;49.646;8.560;2023-12-20T02:55:12;100444.59;;;4.54;100.00
34931;BME280;21134;49.646;8.560;2023-12-20T02:57:39;100464.94;;;4.57;100.00
34931;BME280;21134;49.646;8.560;2023-12-20T03:00:08;100470.78;;;4.55;100.00
34931;BME280;21134;49.646;8.560;2023-12-20T03:02:34;100480.06;;;4.56;100.00
34931;BME280;21134;49.646;8.560;2023-12-20T03:05:01;100471.59;;;4.54;100.00
34931;BME280;21134;49.646;8.560;2023-12-20T03:07:27;100462.31;;;4.54;100.00
34931;BME280;21134;49.646;8.560;2023-12-20T03:09:54;100464.03;;;4.55;100.00
34931;BME280;21134;49.646;8.560;2023-12-20T03:12:20;100459.78;;;4.54;100.00
34931;BME280;21134;49.646;8.560;2023-12-20T03:14:49;100456.41;;;4.54;100.00
34931;BME280;21134;49.646;8.560;2023-12-20T03:17:15;100467.34;;;4.53;100.00
34931;BME280;21134;49.646;8.560;2023-12-20T03:19:42;100480.88;;;4.53;100.00
34931;BME280;21134;49.646;8.560;2023-12-20T03:22:08;100483.41;;;4.53;100.00
34931;BME280;21134;49.646;8.560;2023-12-20T03:24:35;100490.13;;;4.53;100.00
34931;BME280;21134;49.646;8.560;2023-12-20T03:27:01;100475.81;;;4.53;100.00
34931;BME280;21134;49.646;8.560;2023-12-20T03:29:28;100481.75;;;4.54;100.00
34931;BME280;21134;49.646;8.560;2023-12-20T03:31:55;100477.53;;;4.54;100.00
34931;BME280;21134;49.646;8.560;2023-12-20T03:34:22;100484.28;;;4.54;100.00
34931;BME280;21134;49.646;8.560;2023-12-20T03:36:48;100485.16;;;4.56;100.00
34931;BME280;21134;49.646;8.560;2023-12-20T03:39:15;100476.69;;;4.55;100.00
34931;BME280;21134;49.646;8.560;2023-12-20T03:41:41;100476.69;;;4.55;100.00
34931;BME280;21134;49.646;8.560;2023-12-20T03:44:08;100464.03;;;4.55;100.00
34931;BME280;21134;49.646;8.560;2023-12-20T03:46:34;100475.81;;;4.53;100.00
34931;BME280;21134;49.646;8.560;2023-12-20T03:49:02;100480.88;;;4.53;100.00
34931;BME280;21134;49.646;8.560;2023-12-20T03:51:28;100481.75;;;4.54;100.00
34931;BME280;21134;49.646;8.560;2023-12-20T03:53:55;100484.28;;;4.54;100.00
34931;BME280;21134;49.646;8.560;2023-12-20T03:56:21;100474.16;;;4.55;100.00
34931;BME280;21134;49.646;8.560;2023-12-20T03:58:48;100476.69;;;4.55;100.00
34931;BME280;21134;49.646;8.560;2023-12-20T04:01:14;100485.97;;;4.55;100.00
34931;BME280;21134;49.646;8.560;2023-12-20T04:03:41;100486.88;;;4.57;100.00
34931;BME280;21134;49.646;8.560;2023-12-20T04:06:09;100485.97;;;4.55;100.00
34931;BME280;21134;49.646;8.560;2023-12-20T04:08:35;100486.81;;;4.55;100.00
34931;BME280;21134;49.646;8.560;2023-12-20T04:11:02;100487.69;;;4.56;100.00
34931;BME280;21134;49.646;8.560;2023-12-20T04:13:28;100490.22;;;4.56;100.00
34931;BME280;21134;49.646;8.560;2023-12-20T04:15:55;100492.75;;;4.56;100.00
34931;BME280;21134;49.646;8.560;2023-12-20T04:18:21;100496.97;;;4.55;100.00
34931;BME280;21134;49.646;8.560;2023-12-20T04:20:47;100497.81;;;4.56;100.00
34931;BME280;21134;49.646;8.560;2023-12-20T04:23:16;100497.00;;;4.57;100.00
34931;BME280;21134;49.646;8.560;2023-12-20T04:25:42;100495.28;;;4.56;100.00
34931;BME280;21134;49.646;8.560;2023-12-20T04:28:08;100501.22;;;4.56;100.00
34931;BME280;21134;49.646;8.560;2023-12-20T04:30:35;100502.94;;;4.59;100.00
34931;BME280;21134;49.646;8.560;2023-12-20T04:33:02;100501.22;;;4.56;100.00
34931;BME280;21134;49.646;8.560;2023-12-20T04:35:28;100501.22;;;4.56;100.00
34931;BME280;21134;49.646;8.560;2023-12-20T04:37:55;100514.75;;;4.57;100.00
34931;BME280;21134;49.646;8.560;2023-12-20T04:40:23;100516.44;;;4.56;100.00
34931;BME280;21134;49.646;8.560;2023-12-20T04:42:49;100521.50;;;4.56;100.00
34931;BME280;21134;49.646;8.560;2023-12-20T04:45:16;100511.38;;;4.56;100.00
34931;BME280;21134;49.646;8.560;2023-12-20T04:47:44;100518.97;;;4.56;100.00
34931;BME280;21134;49.646;8.560;2023-12-20T04:50:12;100525.69;;;4.56;100.00
34931;BME280;21134;49.646;8.560;2023-12-20T04:52:39;100521.38;;;4.52;100.00
34931;BME280;21134;49.646;8.560;2023-12-20T04:55:06;100519.75;;;4.54;100.00
34931;BME280;21134;49.646;8.560;2023-12-20T04:57:35;100518.00;;;4.51;100.00
34931;BME280;21134;49.646;8.560;2023-12-20T05:00:01;100523.06;;;4.51;100.00
34931;BME280;21134;49.646;8.560;2023-12-20T05:02:28;100523.06;;;4.53;100.00
34931;BME280;21134;49.646;8.560;2023-12-20T05:04:55;100525.59;;;4.51;100.00
34931;BME280;21134;49.646;8.560;2023-12-20T05:07:21;100530.66;;;4.51;100.00
34931;BME280;21134;49.646;8.560;2023-12-20T05:09:48;100532.34;;;4.52;100.00
34931;BME280;21134;49.646;8.560;2023-12-20T05:12:14;100536.56;;;4.52;100.00
34931;BME280;21134;49.646;8.560;2023-12-20T05:14:42;100545.09;;;4.55;100.00
34931;BME280;21134;49.646;8.560;2023-12-20T05:17:08;100535.88;;;4.57;100.00
34931;BME280;21134;49.646;8.560;2023-12-20T05:19:35;100541.72;;;4.55;100.00
34931;BME280;21134;49.646;8.560;2023-12-20T05:22:01;100544.41;;;4.62;100.00
34931;BME280;21134;49.646;8.560;2023-12-20T05:24:28;100545.25;;;4.61;100.00
34931;BME280;21134;49.646;8.560;2023-12-20T05:26:55;100544.31;;;4.58;100.00
34931;BME280;21134;49.646;8.560;2023-12-20T05:29:21;100548.50;;;4.56;100.00
34931;BME280;21134;49.646;8.560;2023-12-20T05:31:49;100546.84;;;4.56;100.00
34931;BME280;21134;49.646;8.560;2023-12-20T05:34:16;100545.94;;;4.54;100.00
34931;BME280;21134;49.646;8.560;2023-12-20T05:36:42;100559.34;;;4.50;100.00
34931;BME280;21134;49.646;8.560;2023-12-20T05:39:09;100560.22;;;4.51;100.00
34931;BME280;21134;49.646;8.560;2023-12-20T05:41:35;100576.19;;;4.50;100.00
34931;BME280;21134;49.646;8.560;2023-12-20T05:44:02;100586.34;;;4.50;100.00
34931;BME280;21134;49.646;8.560;2023-12-20T05:46:28;100586.34;;;4.50;100.00
34931;BME280;21134;49.646;8.560;2023-12-20T05:48:56;100591.47;;;4.51;100.00
34931;BME280;21134;49.646;8.560;2023-12-20T05:51:22;100601.63;;;4.53;100.00
34931;BME280;21134;49.646;8.560;2023-12-20T05:53:49;100610.03;;;4.52;100.00
34931;BME280;21134;49.646;8.560;2023-12-20T05:56:16;100603.28;;;4.51;100.00
34931;BME280;21134;49.646;8.560;2023-12-20T05:58:42;100610.63;;;4.41;100.00
34931;BME280;21134;49.646;8.560;2023-12-20T06:01:09;100613.03;;;4.37;100.00
34931;BME280;21134;49.646;8.560;2023-12-20T06:03:35;100617.97;;;4.31;100.00
34931;BME280;21134;49.646;8.560;2023-12-20T06:06:06;100613.44;;;4.20;100.00
34931;BME280;21134;49.646;8.560;2023-12-20T06:08:33;100625.75;;;4.07;100.00
34931;BME280;21134;49.646;8.560;2023-12-20T06:10:59;100629.69;;;3.97;100.00
34931;BME280;21134;49.646;8.560;2023-12-20T06:13:26;100632.88;;;3.90;100.00
34931;BME280;21134;49.646;8.560;2023-12-20T06:15:54;100625.19;;;3.87;100.00
34931;BME280;21134;49.646;8.560;2023-12-20T06:18:20;100622.59;;;3.84;100.00
34931;BME280;21134;49.646;8.560;2023-12-20T06:20:47;100622.53;;;3.82;100.00
34931;BME280;21134;49.646;8.560;2023-12-20T06:23:15;100638.56;;;3.83;100.00
34931;BME280;21134;49.646;8.560;2023-12-20T06:25:41;100629.09;;;3.76;100.00
34931;BME280;21134;49.646;8.560;2023-12-20T06:28:08;100615.41;;;3.69;100.00
34931;BME280;21134;49.646;8.560;2023-12-20T06:30:35;100620.25;;;3.61;100.00
34931;BME280;21134;49.646;8.560;2023-12-20T06:33:02;100613.28;;;3.54;100.00
34931;BME280;21134;49.646;8.560;2023-12-20T06:35:28;100622.50;;;3.52;100.00
34931;BME280;21134;49.646;8.560;2023-12-20T06:37:55;100624.88;;;3.47;100.00
34931;BME280;21134;49.646;8.560;2023-12-20T06:40:23;100629.72;;;3.40;100.00
34931;BME280;21134;49.646;8.560;2023-12-20T06:42:49;100619.41;;;3.32;100.00
34931;BME280;21134;49.646;8.560;2023-12-20T06:45:16;100630.00;;;3.22;100.00
34931;BME280;21134;49.646;8.560;2023-12-20T06:47:42;100633.16;;;3.15;100.00
34931;BME280;21134;49.646;8.560;2023-12-20T06:50:09;100631.31;;;3.09;100.00
34931;BME280;21134;49.646;8.560;2023-12-20T06:52:35;100633.63;;;3.03;100.00
34931;BME280;21134;49.646;8.560;2023-12-20T06:55:03;100637.63;;;2.96;100.00
34931;BME280;21134;49.646;8.560;2023-12-20T06:57:31;100636.66;;;2.91;100.00
34931;BME280;21134;49.646;8.560;2023-12-20T06:59:57;100634.13;;;2.91;100.00
34931;BME280;21134;49.646;8.560;2023-12-20T07:02:23;100623.94;;;2.90;100.00
34931;BME280;21134;49.646;8.560;2023-12-20T07:04:50;100624.72;;;2.87;100.00
34931;BME280;21134;49.646;8.560;2023-12-20T07:07:16;100636.28;;;2.80;100.00
34931;BME280;21134;49.646;8.560;2023-12-20T07:09:43;100649.69;;;2.78;100.00
34931;BME280;21134;49.646;8.560;2023-12-20T07:12:09;100641.94;;;2.73;100.00
34931;BME280;21134;49.646;8.560;2023-12-20T07:14:37;100644.28;;;2.67;100.00
34931;BME280;21134;49.646;8.560;2023-12-20T07:17:03;100632.22;;;2.59;100.00
34931;BME280;21134;49.646;8.560;2023-12-20T07:19:30;100632.88;;;2.53;100.00
34931;BME280;21134;49.646;8.560;2023-12-20T07:21:57;100633.53;;;2.49;100.00
34931;BME280;21134;49.646;8.560;2023-12-20T07:24:24;100642.66;;;2.44;100.00
34931;BME280;21134;49.646;8.560;2023-12-20T07:26:50;100645.91;;;2.41;100.00
34931;BME280;21134;49.646;8.560;2023-12-20T07:29:17;100655.00;;;2.36;100.00
34931;BME280;21134;49.646;8.560;2023-12-20T07:31:44;100660.72;;;2.30;100.00
34931;BME280;21134;49.646;8.560;2023-12-20T07:34:11;100661.50;;;2.29;100.00
34931;BME280;21134;49.646;8.560;2023-12-20T07:36:37;100661.44;;;2.28;100.00
34931;BME280;21134;49.646;8.560;2023-12-20T07:39:04;100657.25;;;2.28;100.00
34931;BME280;21134;49.646;8.560;2023-12-20T07:41:30;100666.31;;;2.23;100.00
34931;BME280;21134;49.646;8.560;2023-12-20T07:43:57;100669.66;;;2.22;100.00
34931;BME280;21134;49.646;8.560;2023-12-20T07:46:24;100673.00;;;2.21;100.00
34931;BME280;21134;49.646;8.560;2023-12-20T07:48:52;100672.94;;;2.20;100.00
34931;BME280;21134;49.646;8.560;2023-12-20T07:51:18;100671.97;;;2.16;100.00
34931;BME280;21134;49.646;8.560;2023-12-20T07:53:46;100681.22;;;2.16;100.00
34931;BME280;21134;49.646;8.560;2023-12-20T07:56:16;100673.53;;;2.13;100.00
34931;BME280;21134;49.646;8.560;2023-12-20T07:58:42;100675.19;;;2.12;100.00
34931;BME280;21134;49.646;8.560;2023-12-20T08:01:09;100676.75;;;2.08;100.00
34931;BME280;21134;49.646;8.560;2023-12-20T08:03:35;100679.31;;;2.10;100.00
34931;BME280;21134;49.646;8.560;2023-12-20T08:06:04;100679.44;;;2.13;100.00
34931;BME280;21134;49.646;8.560;2023-12-20T08:08:30;100685.41;;;2.15;100.00
34931;BME280;21134;49.646;8.560;2023-12-20T08:10:58;100688.78;;;2.16;100.00
34931;BME280;21134;49.646;8.560;2023-12-20T08:13:25;100688.97;;;2.20;100.00
34931;BME280;21134;49.646;8.560;2023-12-20T08:15:52;100689.09;;;2.25;100.00
34931;BME280;21134;49.646;8.560;2023-12-20T08:18:19;100683.44;;;2.30;100.00
34931;BME280;21134;49.646;8.560;2023-12-20T08:20:45;100687.72;;;2.33;100.00
34931;BME280;21134;49.646;8.560;2023-12-20T08:23:14;100681.13;;;2.37;100.00
34931;BME280;21134;49.646;8.560;2023-12-20T08:25:41;100687.38;;;2.48;100.00
34931;BME280;21134;49.646;8.560;2023-12-20T08:28:07;100685.06;;;2.54;100.00
34931;BME280;21134;49.646;8.560;2023-12-20T08:30:34;100684.53;;;2.63;100.00
34931;BME280;21134;49.646;8.560;2023-12-20T08:33:00;100683.28;;;2.75;100.00
34931;BME280;21134;49.646;8.560;2023-12-20T08:35:27;100685.56;;;2.93;100.00
34931;BME280;21134;49.646;8.560;2023-12-20T08:37:54;100689.44;;;3.09;100.00
34931;BME280;21134;49.646;8.560;2023-12-20T08:40:22;100697.69;;;3.29;100.00
34931;BME280;21134;49.646;8.560;2023-12-20T08:42:48;100690.09;;;3.29;100.00
34931;BME280;21134;49.646;8.560;2023-12-20T08:45:15;100697.78;;;3.32;100.00
34931;BME280;21134;49.646;8.560;2023-12-20T08:47:41;100701.38;;;3.39;100.00
34931;BME280;21134;49.646;8.560;2023-12-20T08:50:10;100700.72;;;3.46;100.00
34931;BME280;21134;49.646;8.560;2023-12-20T08:52:36;100702.97;;;3.64;100.00
34931;BME280;21134;49.646;8.560;2023-12-20T08:55:03;100700.78;;;3.76;100.00
34931;BME280;21134;49.646;8.560;2023-12-20T08:57:31;100696.88;;;3.86;100.00
34931;BME280;21134;49.646;8.560;2023-12-20T08:59:58;100709.09;;;3.99;100.00
34931;BME280;21134;49.646;8.560;2023-12-20T09:02:25;100706.78;;;4.08;100.00
34931;BME280;21134;49.646;8.560;2023-12-20T09:04:51;100705.63;;;4.26;100.00
34931;BME280;21134;49.646;8.560;2023-12-20T09:07:22;100701.75;;;4.38;100.00
34931;BME280;21134;49.646;8.560;2023-12-20T09:09:48;100712.16;;;4.49;100.00
34931;BME280;21134;49.646;8.560;2023-12-20T09:12:15;100708.34;;;4.63;100.00
34931;BME280;21134;49.646;8.560;2023-12-20T09:14:43;100707.56;;;4.66;100.00
34931;BME280;21134;49.646;8.560;2023-12-20T09:17:09;100708.50;;;4.70;100.00
34931;BME280;21134;49.646;8.560;2023-12-20T09:19:37;100710.31;;;4.75;100.00
34931;BME280;21134;49.646;8.560;2023-12-20T09:22:03;100700.31;;;4.80;100.00
34931;BME280;21134;49.646;8.560;2023-12-20T09:24:30;100705.50;;;4.84;100.00
34931;BME280;21134;49.646;8.560;2023-12-20T09:26:57;100705.66;;;4.90;100.00
34931;BME280;21134;49.646;8.560;2023-12-20T09:29:23;100710.03;;;4.96;100.00
34931;BME280;21134;49.646;8.560;2023-12-20T09:31:51;100716.03;;;5.00;100.00
34931;BME280;21134;49.646;8.560;2023-12-20T09:34:17;100717.88;;;5.05;100.00
34931;BME280;21134;49.646;8.560;2023-12-20T09:36:44;100719.72;;;5.12;100.00
34931;BME280;21134;49.646;8.560;2023-12-20T09:39:12;100715.56;;;5.15;100.00
34931;BME280;21134;49.646;8.560;2023-12-20T09:41:43;100717.16;;;5.11;100.00
34931;BME280;21134;49.646;8.560;2023-12-20T09:44:12;100724.03;;;5.17;100.00
34931;BME280;21134;49.646;8.560;2023-12-20T09:46:43;100716.59;;;5.23;100.00
34931;BME280;21134;49.646;8.560;2023-12-20T09:49:12;100715.19;;;5.34;100.00
34931;BME280;21134;49.646;8.560;2023-12-20T09:51:39;100721.94;;;5.33;100.00
34931;BME280;21134;49.646;8.560;2023-12-20T09:54:07;100725.28;;;5.32;100.00
34931;BME280;21134;49.646;8.560;2023-12-20T09:56:33;100719.41;;;5.33;100.00
34931;BME280;21134;49.646;8.560;2023-12-20T09:59:00;100724.66;;;5.41;100.00
34931;BME280;21134;49.646;8.560;2023-12-20T10:01:27;100723.38;;;5.58;100.00
34931;BME280;21134;49.646;8.560;2023-12-20T10:03:55;100718.22;;;5.55;100.00
34931;BME280;21134;49.646;8.560;2023-12-20T10:06:23;100722.63;;;5.63;100.00
34931;BME280;21134;49.646;8.560;2023-12-20T10:08:50;100726.00;;;5.62;100.00
34931;BME280;21134;49.646;8.560;2023-12-20T10:11:16;100729.53;;;5.68;100.00
34931;BME280;21134;49.646;8.560;2023-12-20T10:13:43;100722.69;;;5.66;100.00
34931;BME280;21134;49.646;8.560;2023-12-20T10:16:09;100717.63;;;5.67;100.00
34931;BME280;21134;49.646;8.560;2023-12-20T10:18:36;100711.75;;;5.68;100.00
34931;BME280;21134;49.646;8.560;2023-12-20T10:21:03;100707.53;;;5.70;100.00
34931;BME280;21134;49.646;8.560;2023-12-20T10:23:31;100707.47;;;5.67;100.00
34931;BME280;21134;49.646;8.560;2023-12-20T10:25:58;100714.22;;;5.65;100.00
34931;BME280;21134;49.646;8.560;2023-12-20T10:28:25;100714.22;;;5.67;100.00
34931;BME280;21134;49.646;8.560;2023-12-20T10:30:53;100711.69;;;5.65;100.00
34931;BME280;21134;49.646;8.560;2023-12-20T10:33:24;100705.78;;;5.68;100.00
34931;BME280;21134;49.646;8.560;2023-12-20T10:35:52;100704.13;;;5.68;100.00
34931;BME280;21134;49.646;8.560;2023-12-20T10:38:19;100702.59;;;5.75;100.00
34931;BME280;21134;49.646;8.560;2023-12-20T10:40:47;100694.13;;;5.76;100.00
34931;BME280;21134;49.646;8.560;2023-12-20T10:43:15;100701.81;;;5.79;100.00
34931;BME280;21134;49.646;8.560;2023-12-20T10:45:41;100697.81;;;5.90;100.00
34931;BME280;21134;49.646;8.560;2023-12-20T10:48:10;100702.84;;;5.87;100.00
34931;BME280;21134;49.646;8.560;2023-12-20T10:50:37;100700.31;;;5.87;100.00
34931;BME280;21134;49.646;8.560;2023-12-20T10:53:06;100696.16;;;5.91;100.00
34931;BME280;21134;49.646;8.560;2023-12-20T10:55:33;100699.53;;;5.91;100.00
34931;BME280;21134;49.646;8.560;2023-12-20T10:58:02;100687.06;;;6.00;100.00
34931;BME280;21134;49.646;8.560;2023-12-20T11:00:33;100687.22;;;6.08;97.78
34931;BME280;21134;49.646;8.560;2023-12-20T11:03:01;100689.63;;;6.02;99.59
34931;BME280;21134;49.646;8.560;2023-12-20T11:05:35;100682.88;;;6.02;99.80
34931;BME280;21134;49.646;8.560;2023-12-20T11:08:07;100680.44;;;6.07;98.29
34931;BME280;21134;49.646;8.560;2023-12-20T11:10:42;100672.91;;;6.12;99.66
34931;BME280;21134;49.646;8.560;2023-12-20T11:13:16;100670.53;;;6.21;97.30
34931;BME280;21134;49.646;8.560;2023-12-20T11:15:43;100680.81;;;6.25;96.60
34931;BME280;21134;49.646;8.560;2023-12-20T11:18:11;100662.09;;;6.22;97.81
34931;BME280;21134;49.646;8.560;2023-12-20T11:20:38;100658.69;;;6.20;98.65
34931;BME280;21134;49.646;8.560;2023-12-20T11:23:04;100666.31;;;6.21;99.18
34931;BME280;21134;49.646;8.560;2023-12-20T11:25:46;100670.72;;;6.30;97.29
34931;BME280;21134;49.646;8.560;2023-12-20T11:28:14;100665.66;;;6.32;96.43
34931;BME280;21134;49.646;8.560;2023-12-20T11:30:46;100664.75;;;6.28;95.30
34931;BME280;21134;49.646;8.560;2023-12-20T11:33:13;100652.09;;;6.29;98.37
34931;BME280;21134;49.646;8.560;2023-12-20T11:35:40;100655.56;;;6.35;97.66
34931;BME280;21134;49.646;8.560;2023-12-20T11:38:08;100660.63;;;6.35;97.43
34931;BME280;21134;49.646;8.560;2023-12-20T11:40:35;100662.44;;;6.40;96.34
34931;BME280;21134;49.646;8.560;2023-12-20T11:43:02;100664.06;;;6.37;96.19
34931;BME280;21134;49.646;8.560;2023-12-20T11:45:30;100669.16;;;6.37;95.78
34931;BME280;21134;49.646;8.560;2023-12-20T11:47:57;100664.13;;;6.40;95.14
34931;BME280;21134;49.646;8.560;2023-12-20T11:50:24;100663.47;;;6.50;95.60
34931;BME280;21134;49.646;8.560;2023-12-20T11:52:52;100659.13;;;6.44;95.09
34931;BME280;21134;49.646;8.560;2023-12-20T11:55:19;100652.44;;;6.49;95.11
34931;BME280;21134;49.646;8.560;2023-12-20T11:57:45;100649.00;;;6.46;96.08
34931;BME280;21134;49.646;8.560;2023-12-20T12:00:13;100653.19;;;6.42;96.31
34931;BME280;21134;49.646;8.560;2023-12-20T12:02:41;100656.44;;;6.35;96.21
34931;BME280;21134;49.646;8.560;2023-12-20T12:05:08;100655.53;;;6.33;96.46
34931;BME280;21134;49.646;8.560;2023-12-20T12:07:35;100654.69;;;6.34;95.75
34931;BME280;21134;49.646;8.560;2023-12-20T12:10:02;100651.19;;;6.26;96.71
34931;BME280;21134;49.646;8.560;2023-12-20T12:12:29;100652.94;;;6.30;96.34
34931;BME280;21134;49.646;8.560;2023-12-20T12:14:56;100656.16;;;6.21;97.58
34931;BME280;21134;49.646;8.560;2023-12-20T12:17:23;100657.88;;;6.22;96.60
34931;BME280;21134;49.646;8.560;2023-12-20T12:20:02;100652.75;;;6.19;97.05
34931;BME280;21134;49.646;8.560;2023-12-20T12:22:29;100645.88;;;6.15;97.24
34931;BME280;21134;49.646;8.560;2023-12-20T12:24:59;100650.03;;;6.12;97.04
34931;BME280;21134;49.646;8.560;2023-12-20T12:27:27;100651.97;;;6.25;93.38
34931;BME280;21134;49.646;8.560;2023-12-20T12:30:01;100647.78;;;6.25;94.87
34931;BME280;21134;49.646;8.560;2023-12-20T12:32:28;100645.38;;;6.35;93.59
34931;BME280;21134;49.646;8.560;2023-12-20T12:34:56;100648.66;;;6.27;94.03
34931;BME280;21134;49.646;8.560;2023-12-20T12:37:23;100653.78;;;6.29;94.34
34931;BME280;21134;49.646;8.560;2023-12-20T12:39:50;100646.78;;;6.19;95.91
34931;BME280;21134;49.646;8.560;2023-12-20T12:42:16;100647.72;;;6.22;94.91
34931;BME280;21134;49.646;8.560;2023-12-20T12:44:43;100639.97;;;6.16;96.04
34931;BME280;21134;49.646;8.560;2023-12-20T12:47:09;100653.53;;;6.17;96.30
34931;BME280;21134;49.646;8.560;2023-12-20T12:49:35;100640.84;;;6.18;94.84
34931;BME280;21134;49.646;8.560;2023-12-20T12:52:04;100644.16;;;6.14;93.96